Terminal Aerodrome Forecast
Issued by NWS

Home | Current Version | Previous Version | Text Only | Print | Product List | Glossary On
Versions: 1 2 3 4 5 6 7 8 9 10 11 12
000
FTUS45 KTFX 192329
TAFHLN
TAF
KHLN 192329Z 2000/2024 27011KT P6SM VCSH SCT050 BKN070
      TEMPO 2000/2004 BKN040
     FM201200 26009KT P6SM VCSH SCT040 BKN090 PROB30 2014/2018 -SHRA
      OVC030
     FM201800 25008KT P6SM SCT025 BKN050=

USA.gov is the U.S. government's official web portal to all federal, state and local government web resources and services.